Terminal Aerodrome Forecast
Issued by NWS Sioux Falls, SD

Home | Current Version | Previous Version | Text Only | Print | Product List | Glossary On
Versions: 1 2 3 4 5 6 7 8 9 10 11 12 13 14 15 16 17 18
000
FTUS43 KFSD 300520
TAFHON
TAF
KHON 300520Z 3006/3106 18006KT P6SM SCT090
     FM301000 29009KT P6SM SCT050
     FM301500 33018G25KT P6SM BKN030
     FM302300 35014KT P6SM SCT035
     FM310300 35008KT P6SM SKC=

USA.gov is the U.S. government's official web portal to all federal, state and local government web resources and services.